Time;durP1;ratioP1;P1;durP2;ratioP2;P2;SDS_P1;SDS_P2;PMS_P1;PMS_P2;Temp;Humidity;BMP_temperature;BMP_pressure;BME280_temperature;BME280_humidity;BME280_pressure;Samples;Min_cycle;Max_cycle;Signal;HPM_P1;HPM_P2
2022/05/29 00:01:18;;;;;;;15.68;2.50;;;;;;;;;;5044555;28;20084;-58
2022/05/29 00:03:45;;;;;;;11.48;2.42;;;;;;;;;;5047493;28;20037;-57
2022/05/29 00:06:12;;;;;;;5.88;1.75;;;;;;;;;;5047579;28;20491;-58
2022/05/29 00:08:39;;;;;;;15.30;2.22;;;;;;;;;;5047004;28;20077;-58
2022/05/29 00:11:06;;;;;;;7.75;2.20;;;;;;;;;;5047309;28;20076;-57
2022/05/29 00:13:32;;;;;;;10.77;2.20;;;;;;;;;;5046197;28;20036;-58
2022/05/29 00:15:59;;;;;;;14.20;2.10;;;;;;;;;;5047344;28;20072;-58
2022/05/29 00:18:25;;;;;;;9.32;1.85;;;;;;;;;;5047110;28;20064;-57
2022/05/29 00:20:54;;;;;;;31.92;3.55;;;;;;;;;;5046652;28;20049;-58
2022/05/29 00:23:20;;;;;;;12.82;2.60;;;;;;;;;;5047074;28;20041;-58
2022/05/29 00:25:48;;;;;;;12.85;2.53;;;;;;;;;;5047644;28;20051;-58
2022/05/29 00:28:15;;;;;;;9.65;2.83;;;;;;;;;;5046456;28;20052;-57
2022/05/29 00:30:41;;;;;;;8.45;2.22;;;;;;;;;;5047009;28;20041;-57
2022/05/29 00:33:08;;;;;;;10.18;2.53;;;;;;;;;;5046855;28;20069;-58
2022/05/29 00:35:34;;;;;;;12.60;2.42;;;;;;;;;;5046589;28;20060;-58
2022/05/29 00:38:00;;;;;;;8.52;2.63;;;;;;;;;;5046992;28;20041;-58
2022/05/29 00:40:32;;;;;;;10.10;2.20;;;;;;;;;;5046062;28;20033;-57
2022/05/29 00:42:58;;;;;;;14.98;2.35;;;;;;;;;;5046003;28;20053;-58
2022/05/29 00:45:25;;;;;;;5.97;2.20;;;;;;;;;;5046576;28;20391;-57
2022/05/29 00:47:52;;;;;;;8.75;1.98;;;;;;;;;;5046188;28;20055;-57
2022/05/29 00:50:20;;;;;;;9.63;2.47;;;;;;;;;;5046605;28;20259;-58
2022/05/29 00:52:46;;;;;;;11.35;2.58;;;;;;;;;;5047036;28;20383;-58
2022/05/29 00:55:15;;;;;;;9.80;2.67;;;;;;;;;;5046403;28;20582;-58
2022/05/29 00:57:45;;;;;;;12.77;3.00;;;;;;;;;;5028300;28;20491;-57
2022/05/29 01:00:14;;;;;;;11.68;2.67;;;;;;;;;;5045870;28;20052;-57
2022/05/29 01:02:41;;;;;;;10.23;2.88;;;;;;;;;;5046488;28;20041;-58
2022/05/29 01:05:09;;;;;;;12.93;2.55;;;;;;;;;;5046326;28;20068;-58
2022/05/29 01:07:36;;;;;;;13.48;2.38;;;;;;;;;;5044817;28;20035;-58
2022/05/29 01:10:05;;;;;;;17.85;2.67;;;;;;;;;;5046354;28;20051;-57
2022/05/29 01:12:38;;;;;;;11.90;2.72;;;;;;;;;;5057695;23;20388;-58
2022/05/29 01:15:04;;;;;;;8.55;2.25;;;;;;;;;;5045623;28;20037;-58
2022/05/29 01:17:33;;;;;;;15.10;3.53;;;;;;;;;;5046031;28;20110;-58
2022/05/29 01:20:05;;;;;;;16.65;2.90;;;;;;;;;;5043357;28;20037;-58
2022/05/29 01:22:41;;;;;;;18.42;3.15;;;;;;;;;;5046337;28;20092;-58
2022/05/29 01:25:12;;;;;;;12.23;2.60;;;;;;;;;;5046387;28;20090;-58
2022/05/29 01:28:03;;;;;;;9.98;2.55;;;;;;;;;;5028109;28;20478;-58
2022/05/29 01:30:31;;;;;;;9.75;2.80;;;;;;;;;;5045787;28;20044;-57
2022/05/29 01:33:06;;;;;;;8.88;2.40;;;;;;;;;;5046123;28;20417;-58
2022/05/29 01:35:34;;;;;;;13.23;2.58;;;;;;;;;;5046031;28;20033;-58
2022/05/29 01:38:04;;;;;;;13.52;2.22;;;;;;;;;;5046417;28;20047;-58
2022/05/29 01:40:40;;;;;;;13.68;3.17;;;;;;;;;;5044573;28;20461;-58
2022/05/29 01:43:13;;;;;;;10.43;3.15;;;;;;;;;;5040741;28;20041;-57
2022/05/29 01:45:55;;;;;;;13.30;3.38;;;;;;;;;;5045196;28;20076;-58
2022/05/29 01:48:30;;;;;;;8.88;2.42;;;;;;;;;;5043299;28;20453;-58
2022/05/29 01:50:59;;;;;;;15.25;2.40;;;;;;;;;;5045434;28;20037;-58
2022/05/29 01:53:28;;;;;;;11.40;2.75;;;;;;;;;;5045595;28;20045;-57
2022/05/29 01:55:56;;;;;;;8.82;2.75;;;;;;;;;;5027884;28;20482;-58
2022/05/29 01:58:27;;;;;;;11.23;2.47;;;;;;;;;;5045058;28;20045;-58
2022/05/29 02:00:55;;;;;;;13.63;3.20;;;;;;;;;;5045477;28;20119;-59
2022/05/29 02:03:26;;;;;;;10.43;2.47;;;;;;;;;;5045325;28;20037;-58
2022/05/29 02:05:54;;;;;;;8.20;2.10;;;;;;;;;;5045511;28;20033;-58
2022/05/29 02:08:20;;;;;;;;;;;;;;;;;;5045962;28;20056;-57
2022/05/29 02:10:51;;;;;;;16.23;2.50;;;;;;;;;;5045599;28;19929;-57
2022/05/29 02:13:17;;;;;;;11.38;2.50;;;;;;;;;;5044491;28;20753;-59
2022/05/29 02:15:47;;;;;;;7.70;2.17;;;;;;;;;;5028000;28;20073;-57
2022/05/29 02:18:18;;;;;;;11.43;2.60;;;;;;;;;;5045807;28;20049;-57
2022/05/29 02:20:46;;;;;;;15.15;2.60;;;;;;;;;;5045683;28;20041;-57
2022/05/29 02:23:19;;;;;;;9.93;2.72;;;;;;;;;;5042024;28;20049;-58
2022/05/29 02:25:46;;;;;;;8.48;2.20;;;;;;;;;;5044839;28;20048;-58
2022/05/29 02:28:19;;;;;;;11.10;2.38;;;;;;;;;;5044447;28;20109;-58
2022/05/29 02:30:52;;;;;;;8.48;3.05;;;;;;;;;;5045421;28;20041;-58
2022/05/29 02:33:21;;;;;;;16.00;2.92;;;;;;;;;;5045063;28;20443;-58
2022/05/29 02:35:53;;;;;;;18.17;2.60;;;;;;;;;;5045070;28;20112;-58
2022/05/29 02:38:26;;;;;;;8.80;2.53;;;;;;;;;;5044302;28;20041;-58
2022/05/29 02:40:57;;;;;;;10.15;2.83;;;;;;;;;;5044666;28;20128;-58
2022/05/29 02:43:32;;;;;;;9.50;2.38;;;;;;;;;;5039631;28;20552;-58
2022/05/29 02:46:04;;;;;;;10.07;2.80;;;;;;;;;;5042843;28;20112;-58
2022/05/29 02:48:34;;;;;;;19.60;3.63;;;;;;;;;;5041313;28;20045;-58
2022/05/29 02:51:01;;;;;;;18.58;2.97;;;;;;;;;;5044760;28;20112;-58
2022/05/29 02:53:28;;;;;;;10.50;2.42;;;;;;;;;;5044768;28;20049;-58
2022/05/29 02:55:54;;;;;;;21.27;2.47;;;;;;;;;;5026962;28;20052;-58
2022/05/29 02:58:22;;;;;;;12.77;2.78;;;;;;;;;;5043825;28;20048;-57
2022/05/29 03:00:58;;;;;;;10.57;2.67;;;;;;;;;;5044715;28;20509;-58
2022/05/29 03:03:32;;;;;;;17.77;2.70;;;;;;;;;;5044457;28;20402;-58
2022/05/29 03:06:16;;;;;;;10.77;2.40;;;;;;;;;;5044780;28;20041;-57
2022/05/29 03:08:51;;;;;;;8.48;2.38;;;;;;;;;;5044798;28;20029;-57
2022/05/29 03:11:35;;;;;;;11.82;3.20;;;;;;;;;;5044571;28;20052;-58
2022/05/29 03:14:05;;;;;;;8.57;2.75;;;;;;;;;;5043408;28;20075;-57
2022/05/29 03:16:31;;;;;;;7.78;2.67;;;;;;;;;;5044342;28;20095;-57
2022/05/29 03:19:17;;;;;;;8.30;2.28;;;;;;;;;;5044497;28;20037;-57
2022/05/29 03:21:56;;;;;;;10.90;2.40;;;;;;;;;;5043657;28;20478;-58
2022/05/29 03:24:27;;;;;;;17.58;2.80;;;;;;;;;;5043926;28;20544;-57
2022/05/29 03:26:58;;;;;;;14.80;2.40;;;;;;;;;;5044023;28;20037;-57
2022/05/29 03:29:37;;;;;;;10.70;2.47;;;;;;;;;;5042950;28;20131;-58
2022/05/29 03:32:04;;;;;;;10.35;2.05;;;;;;;;;;5044128;28;20033;-57
2022/05/29 03:34:30;;;;;;;7.00;1.95;;;;;;;;;;5025857;28;20045;-57
2022/05/29 03:36:56;;;;;;;12.05;2.42;;;;;;;;;;5045951;28;20057;-57
2022/05/29 03:39:23;;;;;;;7.43;2.08;;;;;;;;;;5048197;28;20090;-58
2022/05/29 03:41:50;;;;;;;10.88;1.73;;;;;;;;;;5047912;28;20409;-58
2022/05/29 03:44:17;;;;;;;9.98;2.53;;;;;;;;;;5047729;28;20041;-58
2022/05/29 03:46:44;;;;;;;11.25;2.38;;;;;;;;;;5048557;28;20051;-58
2022/05/29 03:49:11;;;;;;;11.23;1.70;;;;;;;;;;5048064;28;20071;-57
2022/05/29 03:51:37;;;;;;;11.20;2.28;;;;;;;;;;5046994;28;20045;-58
2022/05/29 03:54:03;;;;;;;10.98;2.47;;;;;;;;;;5047890;28;20041;-57
2022/05/29 03:56:30;;;;;;;11.32;1.92;;;;;;;;;;5047474;28;20040;-57
2022/05/29 03:58:56;;;;;;;9.48;2.30;;;;;;;;;;5047264;28;20033;-58
2022/05/29 04:01:22;;;;;;;7.93;2.08;;;;;;;;;;5047509;28;20060;-58
2022/05/29 04:03:49;;;;;;;10.48;1.98;;;;;;;;;;5047792;28;20120;-58
2022/05/29 04:06:15;;;;;;;8.43;2.15;;;;;;;;;;5048678;28;20115;-57
2022/05/29 04:14:11;;;;;;;13.48;2.25;;;;;;;;;;5046943;28;20033;-57
2022/05/29 04:16:37;;;;;;;7.22;1.45;;;;;;;;;;5047673;28;20041;-58
2022/05/29 04:19:03;;;;;;;9.30;2.40;;;;;;;;;;5047038;28;20047;-58
2022/05/29 04:21:30;;;;;;;7.35;2.50;;;;;;;;;;5047170;28;20076;-58
2022/05/29 04:23:56;;;;;;;9.02;1.90;;;;;;;;;;5047679;28;20088;-58
2022/05/29 04:26:22;;;;;;;6.05;1.85;;;;;;;;;;5047291;28;20136;-58
2022/05/29 04:28:48;;;;;;;9.60;2.17;;;;;;;;;;5046544;28;20036;-58
2022/05/29 04:31:14;;;;;;;6.85;1.80;;;;;;;;;;5047558;28;20036;-58
2022/05/29 04:33:40;;;;;;;12.18;3.13;;;;;;;;;;5046975;28;20040;-58
2022/05/29 04:36:07;;;;;;;13.48;1.90;;;;;;;;;;5047035;28;20391;-57
2022/05/29 04:38:33;;;;;;;10.55;2.38;;;;;;;;;;5046759;28;20132;-58
2022/05/29 04:41:04;;;;;;;9.48;2.40;;;;;;;;;;5029226;28;20135;-58
2022/05/29 04:43:30;;;;;;;9.18;1.77;;;;;;;;;;5045416;28;20049;-58
2022/05/29 04:45:56;;;;;;;10.90;2.20;;;;;;;;;;5047274;28;20049;-58
2022/05/29 04:48:23;;;;;;;10.32;2.03;;;;;;;;;;5045394;28;20049;-58
2022/05/29 04:50:49;;;;;;;8.52;1.90;;;;;;;;;;5046581;28;20056;-58
2022/05/29 04:53:15;;;;;;;10.23;1.75;;;;;;;;;;5047192;28;20037;-57
2022/05/29 04:55:42;;;;;;;9.30;1.65;;;;;;;;;;5046530;28;20047;-58
2022/05/29 04:58:08;;;;;;;10.75;1.63;;;;;;;;;;5046006;28;20041;-58
2022/05/29 05:00:35;;;;;;;9.50;1.75;;;;;;;;;;5028545;28;20068;-57
2022/05/29 05:03:01;;;;;;;9.27;1.45;;;;;;;;;;5046641;28;20087;-57
2022/05/29 05:05:28;;;;;;;6.90;2.08;;;;;;;;;;5046452;28;20095;-58
2022/05/29 05:07:54;;;;;;;11.15;1.50;;;;;;;;;;5047023;28;20051;-58
2022/05/29 05:10:20;;;;;;;6.90;1.70;;;;;;;;;;5046287;28;20045;-58
2022/05/29 05:12:46;;;;;;;10.07;1.60;;;;;;;;;;5046261;28;20107;-58
2022/05/29 05:15:14;;;;;;;4.82;1.38;;;;;;;;;;5046410;28;20061;-58
2022/05/29 05:17:41;;;;;;;11.40;1.83;;;;;;;;;;5045909;28;20131;-58
2022/05/29 05:20:07;;;;;;;7.82;1.20;;;;;;;;;;5046568;28;20413;-58
2022/05/29 05:22:34;;;;;;;8.57;1.35;;;;;;;;;;5046358;28;20120;-58
2022/05/29 05:25:01;;;;;;;4.67;1.43;;;;;;;;;;5043126;28;20068;-58
2022/05/29 05:27:28;;;;;;;9.25;1.98;;;;;;;;;;5044680;28;20485;-57
2022/05/29 05:29:54;;;;;;;8.93;1.60;;;;;;;;;;5045222;28;20033;-59
2022/05/29 05:32:20;;;;;;;13.73;1.52;;;;;;;;;;5044957;28;20049;-59
2022/05/29 05:34:46;;;;;;;7.97;1.15;;;;;;;;;;5046219;28;20037;-59
2022/05/29 05:37:13;;;;;;;9.85;1.35;;;;;;;;;;5046009;28;20060;-58
2022/05/29 05:39:39;;;;;;;10.20;2.33;;;;;;;;;;5039969;28;20080;-59
2022/05/29 05:42:05;;;;;;;11.77;2.17;;;;;;;;;;5045720;28;20045;-60
2022/05/29 05:44:32;;;;;;;7.93;1.70;;;;;;;;;;5046287;28;20076;-58
2022/05/29 05:46:58;;;;;;;9.57;1.52;;;;;;;;;;5047980;28;20033;-58
2022/05/29 05:49:24;;;;;;;11.32;1.60;;;;;;;;;;5045919;28;20664;-58
2022/05/29 05:51:51;;;;;;;10.68;1.50;;;;;;;;;;5046758;28;20041;-59
2022/05/29 05:54:18;;;;;;;11.07;2.10;;;;;;;;;;5043773;28;20052;-59
2022/05/29 05:56:47;;;;;;;8.00;1.80;;;;;;;;;;5046299;28;20092;-58
2022/05/29 05:59:13;;;;;;;13.75;1.83;;;;;;;;;;5044647;28;20454;-58
2022/05/29 06:01:40;;;;;;;14.40;1.80;;;;;;;;;;5038198;28;20045;-59
2022/05/29 06:04:06;;;;;;;11.55;1.60;;;;;;;;;;5045470;28;20047;-58
2022/05/29 06:06:32;;;;;;;12.68;2.13;;;;;;;;;;5045274;28;20041;-58
2022/05/29 06:08:59;;;;;;;11.70;1.83;;;;;;;;;;5045099;28;20410;-58
2022/05/29 06:11:26;;;;;;;6.60;1.67;;;;;;;;;;5044947;28;20041;-58
2022/05/29 06:13:52;;;;;;;10.13;1.80;;;;;;;;;;5044064;28;20068;-58
2022/05/29 06:16:19;;;;;;;9.88;2.28;;;;;;;;;;5044120;28;20483;-58
2022/05/29 06:18:45;;;;;;;9.63;1.52;;;;;;;;;;5045692;28;20051;-58
2022/05/29 06:21:11;;;;;;;8.60;1.70;;;;;;;;;;5045084;28;20045;-58
2022/05/29 06:23:38;;;;;;;8.45;1.55;;;;;;;;;;5044572;28;20752;-58
2022/05/29 06:26:06;;;;;;;10.00;2.40;;;;;;;;;;5026549;28;20044;-58
2022/05/29 06:28:32;;;;;;;6.68;1.38;;;;;;;;;;5043412;28;20108;-58
2022/05/29 06:30:58;;;;;;;10.50;1.48;;;;;;;;;;5043616;28;20106;-58
2022/05/29 06:33:26;;;;;;;9.70;2.42;;;;;;;;;;5044607;28;20041;-58
2022/05/29 06:35:53;;;;;;;7.20;1.73;;;;;;;;;;5043448;28;20055;-58
2022/05/29 06:38:20;;;;;;;9.32;1.30;;;;;;;;;;5022951;28;20045;-59
2022/05/29 06:40:49;;;;;;;6.18;1.30;;;;;;;;;;5044908;28;20146;-58
2022/05/29 06:43:15;;;;;;;12.75;1.92;;;;;;;;;;5042652;28;20048;-58
2022/05/29 06:45:42;;;;;;;10.52;1.70;;;;;;;;;;5043720;28;20075;-58
2022/05/29 06:48:08;;;;;;;6.35;1.60;;;;;;;;;;5043536;28;20048;-57
2022/05/29 06:50:34;;;;;;;10.38;1.48;;;;;;;;;;5044303;28;20051;-58
2022/05/29 06:53:00;;;;;;;13.10;1.80;;;;;;;;;;5044424;28;20052;-58
2022/05/29 06:55:27;;;;;;;6.88;1.42;;;;;;;;;;5043841;28;20509;-58
2022/05/29 06:57:53;;;;;;;11.93;1.73;;;;;;;;;;5043902;28;20041;-58
2022/05/29 07:08:39;;;;;;;9.73;1.95;;;;;;;;;;5044118;28;20199;-58
2022/05/29 07:11:08;;;;;;;8.25;1.50;;;;;;;;;;5043748;28;20048;-58
2022/05/29 07:13:35;;;;;;;16.00;1.80;;;;;;;;;;5043117;28;20053;-58
2022/05/29 07:16:01;;;;;;;14.95;1.90;;;;;;;;;;5025984;28;20128;-58
2022/05/29 07:18:29;;;;;;;10.63;2.00;;;;;;;;;;5043669;28;20068;-58
2022/05/29 07:20:55;;;;;;;13.87;2.37;;;;;;;;;;5044475;28;20041;-58
2022/05/29 07:23:21;;;;;;;13.20;1.58;;;;;;;;;;5044034;28;20481;-58
2022/05/29 07:25:47;;;;;;;9.70;2.13;;;;;;;;;;5044227;28;20036;-58
2022/05/29 07:28:13;;;;;;;11.45;1.67;;;;;;;;;;5026025;28;20044;-58
2022/05/29 07:30:39;;;;;;;15.20;1.58;;;;;;;;;;5043967;28;20045;-58
2022/05/29 07:33:05;;;;;;;18.38;2.45;;;;;;;;;;5043458;28;20124;-58
2022/05/29 07:35:32;;;;;;;21.20;1.85;;;;;;;;;;5042741;28;20128;-58
2022/05/29 07:37:58;;;;;;;17.00;2.25;;;;;;;;;;5043814;28;20087;-58
2022/05/29 07:40:25;;;;;;;11.55;1.40;;;;;;;;;;5043338;28;20534;-58
2022/05/29 07:45:35;;;;;;;9.75;1.65;;;;;;;;;;5043501;28;20086;-58
2022/05/29 07:48:02;;;;;;;12.77;1.52;;;;;;;;;;5040710;28;20040;-59
2022/05/29 07:50:28;;;;;;;10.85;1.60;;;;;;;;;;5043753;28;20041;-58
2022/05/29 07:52:54;;;;;;;10.20;1.35;;;;;;;;;;5044224;28;20065;-58
2022/05/29 07:55:21;;;;;;;13.65;1.30;;;;;;;;;;5043537;28;20041;-58
2022/05/29 07:57:47;;;;;;;11.23;1.10;;;;;;;;;;5043101;28;20494;-59
2022/05/29 08:00:14;;;;;;;6.97;1.02;;;;;;;;;;5043718;28;20068;-58
2022/05/29 08:02:40;;;;;;;6.90;1.13;;;;;;;;;;5023847;28;20064;-58
2022/05/29 08:05:07;;;;;;;7.28;1.00;;;;;;;;;;5043380;28;21069;-58
2022/05/29 08:07:34;;;;;;;8.65;1.05;;;;;;;;;;5043304;28;20144;-58
2022/05/29 08:10:00;;;;;;;7.28;1.02;;;;;;;;;;5043708;28;20037;-58
2022/05/29 08:12:26;;;;;;;10.88;0.95;;;;;;;;;;5042283;28;20060;-58
2022/05/29 08:14:52;;;;;;;8.18;1.08;;;;;;;;;;5043854;28;20049;-58
2022/05/29 08:17:18;;;;;;;10.82;1.38;;;;;;;;;;5043223;28;20053;-59
2022/05/29 08:19:45;;;;;;;9.70;1.55;;;;;;;;;;5044207;28;20045;-58
2022/05/29 08:22:11;;;;;;;7.28;1.25;;;;;;;;;;5044270;28;20037;-58
2022/05/29 08:32:59;;;;;;;8.32;1.08;;;;;;;;;;5045751;28;20041;-58
2022/05/29 08:35:25;;;;;;;10.43;1.25;;;;;;;;;;5045221;28;20091;-58
2022/05/29 08:37:51;;;;;;;7.93;0.80;;;;;;;;;;5042788;28;20387;-59
2022/05/29 08:40:17;;;;;;;5.85;0.90;;;;;;;;;;5046480;28;20069;-58
2022/05/29 08:42:43;;;;;;;5.82;0.88;;;;;;;;;;5036345;28;20048;-58
2022/05/29 08:45:14;;;;;;;5.65;0.75;;;;;;;;;;5029514;28;20083;-58
2022/05/29 08:47:41;;;;;;;6.22;1.02;;;;;;;;;;5032871;28;20059;-58
2022/05/29 08:50:10;;;;;;;6.22;0.80;;;;;;;;;;5029619;28;20277;-58
2022/05/29 08:52:39;;;;;;;4.70;0.63;;;;;;;;;;5029951;28;20107;-58
2022/05/29 08:55:07;;;;;;;6.38;1.08;;;;;;;;;;5045444;28;20045;-58
2022/05/29 08:57:37;;;;;;;8.07;0.75;;;;;;;;;;5045466;28;20402;-58
2022/05/29 09:00:06;;;;;;;5.88;0.65;;;;;;;;;;5047545;28;20041;-58
2022/05/29 09:02:40;;;;;;;9.98;1.10;;;;;;;;;;5037836;28;20056;-58
2022/05/29 09:05:10;;;;;;;5.55;0.77;;;;;;;;;;5050540;28;20041;-58
2022/05/29 09:07:38;;;;;;;5.90;0.95;;;;;;;;;;5047223;28;20088;-58
2022/05/29 09:10:07;;;;;;;7.65;0.98;;;;;;;;;;5050667;28;20048;-58
2022/05/29 09:12:37;;;;;;;6.72;0.98;;;;;;;;;;5042392;28;20080;-59
2022/05/29 09:15:07;;;;;;;5.78;0.73;;;;;;;;;;5044460;28;20056;-58
2022/05/29 09:17:37;;;;;;;6.38;0.95;;;;;;;;;;5045122;28;20045;-57
2022/05/29 09:20:09;;;;;;;7.97;1.33;;;;;;;;;;5027728;28;20593;-58
2022/05/29 09:22:37;;;;;;;6.38;0.47;;;;;;;;;;5042686;28;20045;-58
2022/05/29 09:25:07;;;;;;;4.70;0.77;;;;;;;;;;5044541;28;20044;-58
2022/05/29 09:27:35;;;;;;;6.57;0.93;;;;;;;;;;5044531;28;20041;-58
2022/05/29 09:30:01;;;;;;;4.18;0.70;;;;;;;;;;5046189;28;20052;-58
2022/05/29 09:32:30;;;;;;;5.80;0.70;;;;;;;;;;5046180;28;20071;-58
2022/05/29 09:35:01;;;;;;;6.10;0.90;;;;;;;;;;5044373;28;20406;-59
2022/05/29 09:37:35;;;;;;;10.40;1.20;;;;;;;;;;5034105;28;20045;-58
2022/05/29 09:40:02;;;;;;;15.70;0.63;;;;;;;;;;5031648;28;20040;-58
2022/05/29 09:42:33;;;;;;;8.23;1.42;;;;;;;;;;5025559;28;20033;-58
2022/05/29 09:45:15;;;;;;;8.38;1.05;;;;;;;;;;5029283;28;20080;-58
2022/05/29 09:50:43;;;;;;;5.75;1.00;;;;;;;;;;5033956;28;20088;-58
2022/05/29 09:53:16;;;;;;;8.07;0.77;;;;;;;;;;5029818;28;20538;-58
2022/05/29 09:55:51;;;;;;;5.03;1.13;;;;;;;;;;5033147;28;20064;-58
2022/05/29 09:58:21;;;;;;;6.70;0.80;;;;;;;;;;5027152;28;20045;-59
2022/05/29 10:01:01;;;;;;;4.90;0.75;;;;;;;;;;5029119;28;20037;-59
2022/05/29 10:03:34;;;;;;;9.30;0.82;;;;;;;;;;5027232;28;20045;-59
2022/05/29 10:06:07;;;;;;;4.57;0.60;;;;;;;;;;5029571;28;20045;-58
2022/05/29 10:08:34;;;;;;;3.80;0.68;;;;;;;;;;5032976;28;20620;-58
2022/05/29 10:11:21;;;;;;;8.13;1.00;;;;;;;;;;5031767;28;20048;-58
2022/05/29 10:13:49;;;;;;;3.83;0.70;;;;;;;;;;5033796;28;20052;-57
2022/05/29 10:16:32;;;;;;;5.32;0.82;;;;;;;;;;5039149;28;20040;-58
2022/05/29 10:18:58;;;;;;;4.05;0.55;;;;;;;;;;5046302;28;20045;-58
2022/05/29 10:21:25;;;;;;;3.17;0.50;;;;;;;;;;5046125;28;20048;-59
2022/05/29 10:23:54;;;;;;;7.93;0.88;;;;;;;;;;5044224;28;20043;-58
2022/05/29 10:26:20;;;;;;;;;;;;;;;;;;5042506;28;20037;-59
2022/05/29 10:28:46;;;;;;;6.22;0.60;;;;;;;;;;5046914;28;20282;-58
2022/05/29 10:31:14;;;;;;;9.05;0.93;;;;;;;;;;5046208;28;20037;-58
2022/05/29 10:33:41;;;;;;;;;;;;;;;;;;5042742;28;20086;-58
2022/05/29 10:36:08;;;;;;;9.65;1.25;;;;;;;;;;5043735;28;20853;-58
2022/05/29 10:38:34;;;;;;;6.63;0.60;;;;;;;;;;5041419;28;20033;-58
2022/05/29 10:41:03;;;;;;;2.33;0.63;;;;;;;;;;5043969;28;20482;-58
2022/05/29 10:43:36;;;;;;;2.90;0.63;;;;;;;;;;5043183;28;20067;-59
2022/05/29 10:46:06;;;;;;;5.25;0.63;;;;;;;;;;5043933;28;20478;-58
2022/05/29 10:48:42;;;;;;;3.95;0.43;;;;;;;;;;5043932;28;20049;-58
2022/05/29 10:51:21;;;;;;;6.53;0.60;;;;;;;;;;5043997;28;20035;-58
2022/05/29 10:54:02;;;;;;;2.33;0.40;;;;;;;;;;5044369;28;20514;-59
2022/05/29 10:56:29;;;;;;;4.47;0.73;;;;;;;;;;5038992;28;20072;-59
2022/05/29 10:58:59;;;;;;;4.88;0.50;;;;;;;;;;5028171;28;20052;-58
2022/05/29 11:04:16;;;;;;;3.10;0.73;;;;;;;;;;5031481;28;20049;-58
2022/05/29 11:06:50;;;;;;;2.88;0.38;;;;;;;;;;5036299;28;20060;-58
2022/05/29 11:09:35;;;;;;;6.18;0.55;;;;;;;;;;5031874;28;20049;-58
2022/05/29 11:12:11;;;;;;;3.90;0.90;;;;;;;;;;5041961;28;20510;-59
2022/05/29 11:14:44;;;;;;;4.88;0.88;;;;;;;;;;5044456;28;20094;-58
2022/05/29 11:17:18;;;;;;;5.05;0.60;;;;;;;;;;5043602;28;20060;-58
2022/05/29 11:19:59;;;;;;;6.85;0.80;;;;;;;;;;5043583;28;20182;-58
2022/05/29 11:22:30;;;;;;;7.63;0.98;;;;;;;;;;5042455;28;20051;-58
2022/05/29 11:25:08;;;;;;;8.27;1.40;;;;;;;;;;5041899;28;20051;-59
2022/05/29 11:27:43;;;;;;;3.83;0.80;;;;;;;;;;5040271;28;20052;-59
2022/05/29 11:30:13;;;;;;;8.98;0.95;;;;;;;;;;5041827;28;20508;-59
2022/05/29 11:32:43;;;;;;;7.30;0.70;;;;;;;;;;5042681;28;20072;-59
2022/05/29 11:35:13;;;;;;;3.65;0.50;;;;;;;;;;5043340;28;20040;-59
2022/05/29 11:37:41;;;;;;;4.40;0.63;;;;;;;;;;5042940;28;20052;-59
2022/05/29 11:40:11;;;;;;;5.28;0.68;;;;;;;;;;5043299;28;20052;-59
2022/05/29 11:42:48;;;;;;;4.13;0.60;;;;;;;;;;5041510;28;20055;-59
2022/05/29 11:45:17;;;;;;;1.83;0.47;;;;;;;;;;5043301;28;20044;-59
2022/05/29 11:51:16;;;;;;;8.20;0.77;;;;;;;;;;5028303;28;20597;-59
2022/05/29 11:53:43;;;;;;;5.70;0.60;;;;;;;;;;5039317;28;20159;-59
2022/05/29 11:56:15;;;;;;;12.10;0.88;;;;;;;;;;5042727;28;20146;-59
2022/05/29 11:58:47;;;;;;;7.32;0.75;;;;;;;;;;5045060;28;20056;-59
2022/05/29 12:01:18;;;;;;;13.52;1.60;;;;;;;;;;5047563;28;20285;-58
2022/05/29 12:03:44;;;;;;;8.95;1.23;;;;;;;;;;5047493;28;20048;-58
2022/05/29 12:06:22;;;;;;;3.90;0.50;;;;;;;;;;5042057;28;20755;-58
2022/05/29 12:08:55;;;;;;;5.43;1.10;;;;;;;;;;5038607;28;20037;-58
2022/05/29 12:11:22;;;;;;;6.35;0.77;;;;;;;;;;5034805;28;20056;-58
2022/05/29 12:14:04;;;;;;;6.28;0.75;;;;;;;;;;5037477;28;20053;-58
2022/05/29 12:16:31;;;;;;;6.50;1.00;;;;;;;;;;5038067;28;20128;-58
2022/05/29 12:18:58;;;;;;;5.95;0.95;;;;;;;;;;5046774;28;20102;-57
2022/05/29 12:21:29;;;;;;;6.15;1.00;;;;;;;;;;5045944;28;20102;-58
2022/05/29 12:23:57;;;;;;;7.57;1.27;;;;;;;;;;5044217;28;20120;-58
2022/05/29 12:26:26;;;;;;;6.93;0.90;;;;;;;;;;5045069;28;20048;-58
2022/05/29 12:28:55;;;;;;;6.82;1.00;;;;;;;;;;5047146;28;20149;-58
2022/05/29 12:31:23;;;;;;;9.02;0.90;;;;;;;;;;5047004;28;20052;-57
2022/05/29 12:33:50;;;;;;;9.05;0.80;;;;;;;;;;5049031;28;20122;-57
2022/05/29 12:36:16;;;;;;;3.70;0.70;;;;;;;;;;5028098;28;20037;-57
2022/05/29 12:39:02;;;;;;;5.65;0.77;;;;;;;;;;5046744;28;20044;-58
2022/05/29 12:41:31;;;;;;;9.32;1.23;;;;;;;;;;5045182;28;20052;-57
2022/05/29 12:44:23;;;;;;;11.02;0.93;;;;;;;;;;5046607;28;20479;-59
2022/05/29 12:46:56;;;;;;;7.45;1.50;;;;;;;;;;5044924;28;20486;-57
2022/05/29 12:49:36;;;;;;;11.07;1.25;;;;;;;;;;5045092;28;20037;-58
2022/05/29 12:52:09;;;;;;;3.83;0.65;;;;;;;;;;5044347;28;20099;-57
2022/05/29 12:54:54;;;;;;;7.28;1.15;;;;;;;;;;5045483;28;20052;-57
2022/05/29 12:57:35;;;;;;;6.57;1.30;;;;;;;;;;5038145;28;20095;-57
2022/05/29 13:00:05;;;;;;;5.70;1.00;;;;;;;;;;5033929;28;20045;-57
2022/05/29 13:02:42;;;;;;;14.38;1.30;;;;;;;;;;5040145;28;20045;-57
2022/05/29 13:05:17;;;;;;;4.35;0.98;;;;;;;;;;5040493;28;20036;-57
2022/05/29 13:08:02;;;;;;;5.50;0.77;;;;;;;;;;5043815;28;20045;-57
2022/05/29 13:10:32;;;;;;;11.40;1.30;;;;;;;;;;5040935;28;20578;-58
2022/05/29 13:13:12;;;;;;;6.10;0.82;;;;;;;;;;5043199;28;20056;-57
2022/05/29 13:15:39;;;;;;;6.75;1.02;;;;;;;;;;5040359;28;20051;-57
2022/05/29 13:18:17;;;;;;;5.90;0.88;;;;;;;;;;5043450;28;20490;-57
2022/05/29 13:21:04;;;;;;;4.38;0.57;;;;;;;;;;5038443;28;20052;-58
2022/05/29 13:23:32;;;;;;;9.00;1.13;;;;;;;;;;5035651;28;20041;-57
2022/05/29 13:25:58;;;;;;;6.38;1.00;;;;;;;;;;5031806;28;20304;-57
2022/05/29 13:28:48;;;;;;;7.82;1.05;;;;;;;;;;5030952;28;20128;-58
2022/05/29 13:31:16;;;;;;;11.57;1.45;;;;;;;;;;5032195;28;20453;-57
2022/05/29 13:33:44;;;;;;;9.15;0.93;;;;;;;;;;5033513;28;20044;-58
2022/05/29 13:36:31;;;;;;;5.30;1.05;;;;;;;;;;5031873;28;20122;-57
2022/05/29 13:38:57;;;;;;;7.70;0.98;;;;;;;;;;5031130;28;20144;-58
2022/05/29 13:41:29;;;;;;;4.47;0.60;;;;;;;;;;5026312;28;20498;-58
2022/05/29 13:43:55;;;;;;;6.85;0.70;;;;;;;;;;5034117;28;20045;-58
2022/05/29 13:46:24;;;;;;;5.82;0.90;;;;;;;;;;5031516;28;20676;-58
2022/05/29 13:48:58;;;;;;;5.68;0.50;;;;;;;;;;5038983;28;20041;-57
2022/05/29 13:51:27;;;;;;;6.38;0.85;;;;;;;;;;5035841;28;20863;-57
2022/05/29 13:53:59;;;;;;;5.50;0.77;;;;;;;;;;5035752;28;20061;-57
2022/05/29 13:56:44;;;;;;;6.97;0.77;;;;;;;;;;5033485;28;20879;-57
2022/05/29 14:04:44;;;;;;;5.85;0.82;;;;;;;;;;5017203;28;20705;-57
2022/05/29 14:07:11;;;;;;;12.10;0.75;;;;;;;;;;5031136;28;20398;-57
2022/05/29 14:09:39;;;;;;;6.53;0.68;;;;;;;;;;5032668;28;20283;-58
2022/05/29 14:12:13;;;;;;;4.22;0.70;;;;;;;;;;5033319;28;20045;-57
2022/05/29 14:14:43;;;;;;;4.72;0.90;;;;;;;;;;5031103;28;20049;-58
2022/05/29 14:17:12;;;;;;;3.45;1.00;;;;;;;;;;5039991;28;20041;-57
2022/05/29 14:19:39;;;;;;;4.25;0.65;;;;;;;;;;5042729;28;20130;-58
2022/05/29 14:22:13;;;;;;;9.65;1.10;;;;;;;;;;5043209;28;20045;-57
2022/05/29 14:24:39;;;;;;;8.77;1.05;;;;;;;;;;5043331;28;20564;-57
2022/05/29 14:27:15;;;;;;;5.70;2.17;;;;;;;;;;5042804;28;20510;-57
2022/05/29 14:29:55;;;;;;;7.35;0.80;;;;;;;;;;5042757;28;20096;-58
2022/05/29 14:32:25;;;;;;;11.88;1.35;;;;;;;;;;5043064;28;20087;-57
2022/05/29 14:35:00;;;;;;;5.47;0.90;;;;;;;;;;5041390;28;20508;-57
2022/05/29 14:37:26;;;;;;;7.40;0.95;;;;;;;;;;5036229;28;20063;-57
2022/05/29 14:40:03;;;;;;;9.95;1.17;;;;;;;;;;5030584;28;20064;-57
2022/05/29 14:42:38;;;;;;;8.43;0.80;;;;;;;;;;5034139;28;20574;-57
2022/05/29 14:45:08;;;;;;;7.43;1.40;;;;;;;;;;5042629;28;20084;-57
2022/05/29 14:47:38;;;;;;;5.28;0.90;;;;;;;;;;5041888;28;20131;-57
2022/05/29 14:50:20;;;;;;;6.45;0.85;;;;;;;;;;5042673;28;20109;-57
2022/05/29 14:52:55;;;;;;;7.25;1.35;;;;;;;;;;5042754;28;20059;-59
2022/05/29 14:55:23;;;;;;;7.30;0.80;;;;;;;;;;5034185;28;20045;-59
2022/05/29 14:57:51;;;;;;;8.32;0.70;;;;;;;;;;5012436;28;20049;-58
2022/05/29 15:00:22;;;;;;;6.72;1.40;;;;;;;;;;5036715;28;20044;-59
2022/05/29 15:02:49;;;;;;;7.00;0.88;;;;;;;;;;5024299;28;20057;-58
2022/05/29 15:05:17;;;;;;;6.40;1.02;;;;;;;;;;5041941;28;20141;-58
2022/05/29 15:10:36;;;;;;;11.05;1.10;;;;;;;;;;5041052;28;20048;-59
2022/05/29 15:13:02;;;;;;;;;;;;;;;;;;5042219;28;20045;-58
2022/05/29 15:15:37;;;;;;;6.07;0.70;;;;;;;;;;5041837;28;19982;-58
2022/05/29 15:18:13;;;;;;;11.35;1.67;;;;;;;;;;5042446;28;20510;-58
2022/05/29 15:26:13;;;;;;;4.72;0.95;;;;;;;;;;5040398;28;20132;-58
2022/05/29 15:28:44;;;;;;;7.82;1.20;;;;;;;;;;5040918;28;20044;-57
2022/05/29 15:31:14;;;;;;;6.25;0.82;;;;;;;;;;5042186;28;20143;-57
2022/05/29 15:33:50;;;;;;;4.05;0.70;;;;;;;;;;5044666;28;20120;-57
2022/05/29 15:36:27;;;;;;;8.52;0.70;;;;;;;;;;5036225;28;20565;-58
2022/05/29 15:38:59;;;;;;;7.22;1.10;;;;;;;;;;5043326;28;20120;-58
2022/05/29 15:41:40;;;;;;;8.80;1.00;;;;;;;;;;5045121;28;20037;-57
2022/05/29 15:44:09;;;;;;;7.93;1.10;;;;;;;;;;5045902;28;20040;-57